sensor_id;sensor_type;location;lat;lon;timestamp;pressure;altitude;pressure_sealevel;temperature;humidity
76808;BME280;65758;45.458;11.062;2023-06-04T00:00:31;100961.11;;;21.59;62.96
76808;BME280;65758;45.458;11.062;2023-06-04T00:02:58;100957.54;;;21.56;62.76
76808;BME280;65758;45.458;11.062;2023-06-04T00:05:25;100958.90;;;21.53;62.76
76808;BME280;65758;45.458;11.062;2023-06-04T00:07:52;100956.05;;;21.49;62.99
76808;BME280;65758;45.458;11.062;2023-06-04T00:10:19;100953.10;;;21.47;63.08
76808;BME280;65758;45.458;11.062;2023-06-04T00:12:45;100956.16;;;21.46;63.19
76808;BME280;65758;45.458;11.062;2023-06-04T00:15:13;100955.73;;;21.47;63.08
76808;BME280;65758;45.458;11.062;2023-06-04T00:17:43;100955.71;;;21.49;63.26
76808;BME280;65758;45.458;11.062;2023-06-04T00:20:10;100956.61;;;21.53;63.20
76808;BME280;65758;45.458;11.062;2023-06-04T00:22:37;100955.05;;;21.59;63.29
76808;BME280;65758;45.458;11.062;2023-06-04T00:25:05;100957.60;;;21.62;63.25
76808;BME280;65758;45.458;11.062;2023-06-04T00:27:32;100954.68;;;21.62;63.13
76808;BME280;65758;45.458;11.062;2023-06-04T00:29:58;100962.35;;;21.63;63.01
76808;BME280;65758;45.458;11.062;2023-06-04T00:32:25;100960.20;;;21.61;63.08
76808;BME280;65758;45.458;11.062;2023-06-04T00:34:55;100960.11;;;21.59;63.19
76808;BME280;65758;45.458;11.062;2023-06-04T00:37:25;100964.83;;;21.56;63.21
76808;BME280;65758;45.458;11.062;2023-06-04T00:39:51;100966.15;;;21.52;63.40
76808;BME280;65758;45.458;11.062;2023-06-04T00:42:18;100968.64;;;21.49;63.75
76808;BME280;65758;45.458;11.062;2023-06-04T00:44:45;100964.07;;;21.49;63.94
76808;BME280;65758;45.458;11.062;2023-06-04T00:47:13;100960.55;;;21.49;64.11
76808;BME280;65758;45.458;11.062;2023-06-04T00:49:41;100965.73;;;21.50;64.13
76808;BME280;65758;45.458;11.062;2023-06-04T00:52:09;100965.73;;;21.49;64.20
76808;BME280;65758;45.458;11.062;2023-06-04T00:54:36;100965.05;;;21.45;64.36
76808;BME280;65758;45.458;11.062;2023-06-04T00:57:05;100964.59;;;21.41;64.55
76808;BME280;65758;45.458;11.062;2023-06-04T00:59:33;100962.98;;;21.39;64.58
76808;BME280;65758;45.458;11.062;2023-06-04T01:02:11;100968.31;;;21.35;64.80
76808;BME280;65758;45.458;11.062;2023-06-04T01:04:46;100970.39;;;21.33;65.37
76808;BME280;65758;45.458;11.062;2023-06-04T01:07:16;100970.30;;;21.32;66.07
76808;BME280;65758;45.458;11.062;2023-06-04T01:09:46;100969.32;;;21.29;66.22
76808;BME280;65758;45.458;11.062;2023-06-04T01:12:13;100967.20;;;21.28;66.52
76808;BME280;65758;45.458;11.062;2023-06-04T01:14:40;100963.83;;;21.27;66.77
76808;BME280;65758;45.458;11.062;2023-06-04T01:17:36;100963.66;;;21.27;66.85
76808;BME280;65758;45.458;11.062;2023-06-04T01:25:24;100968.98;;;21.24;67.13
76808;BME280;65758;45.458;11.062;2023-06-04T01:27:55;100966.18;;;21.25;67.17
76808;BME280;65758;45.458;11.062;2023-06-04T01:30:29;100964.40;;;21.25;67.38
76808;BME280;65758;45.458;11.062;2023-06-04T01:32:58;100963.52;;;21.25;67.37
76808;BME280;65758;45.458;11.062;2023-06-04T01:35:27;100967.78;;;21.21;67.28
76808;BME280;65758;45.458;11.062;2023-06-04T01:37:55;100974.10;;;21.18;67.36
76808;BME280;65758;45.458;11.062;2023-06-04T01:40:23;100968.80;;;21.13;66.99
76808;BME280;65758;45.458;11.062;2023-06-04T01:42:50;100972.83;;;21.07;67.17
76808;BME280;65758;45.458;11.062;2023-06-04T01:45:17;100973.27;;;21.00;67.26
76808;BME280;65758;45.458;11.062;2023-06-04T01:47:44;100975.11;;;20.92;67.39
76808;BME280;65758;45.458;11.062;2023-06-04T01:50:11;100976.73;;;20.84;67.52
76808;BME280;65758;45.458;11.062;2023-06-04T01:52:41;100976.62;;;20.75;67.72
76808;BME280;65758;45.458;11.062;2023-06-04T01:55:11;100977.01;;;20.68;67.90
76808;BME280;65758;45.458;11.062;2023-06-04T01:57:42;100977.48;;;20.65;68.00
76808;BME280;65758;45.458;11.062;2023-06-04T02:00:11;100980.59;;;20.64;67.95
76808;BME280;65758;45.458;11.062;2023-06-04T02:02:41;100980.41;;;20.66;67.91
76808;BME280;65758;45.458;11.062;2023-06-04T02:09:21;100985.60;;;20.64;67.58
76808;BME280;65758;45.458;11.062;2023-06-04T02:11:48;100985.80;;;20.58;67.67
76808;BME280;65758;45.458;11.062;2023-06-04T02:14:15;100986.53;;;20.56;67.68
76808;BME280;65758;45.458;11.062;2023-06-04T02:16:41;100989.42;;;20.55;67.78
76808;BME280;65758;45.458;11.062;2023-06-04T02:19:08;100993.98;;;20.55;68.33
76808;BME280;65758;45.458;11.062;2023-06-04T02:21:35;100996.05;;;20.55;68.56
76808;BME280;65758;45.458;11.062;2023-06-04T02:24:02;100994.07;;;20.53;68.84
76808;BME280;65758;45.458;11.062;2023-06-04T02:26:29;100999.07;;;20.53;69.02
76808;BME280;65758;45.458;11.062;2023-06-04T02:28:56;100998.41;;;20.52;69.04
76808;BME280;65758;45.458;11.062;2023-06-04T02:31:23;100999.09;;;20.49;69.17
76808;BME280;65758;45.458;11.062;2023-06-04T02:33:49;100994.48;;;20.47;69.20
76808;BME280;65758;45.458;11.062;2023-06-04T02:36:16;100994.49;;;20.46;69.42
76808;BME280;65758;45.458;11.062;2023-06-04T02:38:44;100994.94;;;20.45;69.66
76808;BME280;65758;45.458;11.062;2023-06-04T02:41:10;100999.27;;;20.44;69.86
76808;BME280;65758;45.458;11.062;2023-06-04T02:43:38;101000.50;;;20.42;70.23
76808;BME280;65758;45.458;11.062;2023-06-04T02:46:04;100999.40;;;20.40;70.06
76808;BME280;65758;45.458;11.062;2023-06-04T02:48:32;100996.24;;;20.40;70.14
76808;BME280;65758;45.458;11.062;2023-06-04T02:50:59;100995.48;;;20.37;70.23
76808;BME280;65758;45.458;11.062;2023-06-04T02:53:26;100994.23;;;20.33;70.42
76808;BME280;65758;45.458;11.062;2023-06-04T02:55:53;100994.05;;;20.32;70.71
76808;BME280;65758;45.458;11.062;2023-06-04T02:58:20;100992.67;;;20.29;70.81
76808;BME280;65758;45.458;11.062;2023-06-04T03:00:52;100994.50;;;20.26;71.02
76808;BME280;65758;45.458;11.062;2023-06-04T03:03:19;100996.50;;;20.25;71.00
76808;BME280;65758;45.458;11.062;2023-06-04T03:05:46;100997.17;;;20.24;71.05
76808;BME280;65758;45.458;11.062;2023-06-04T03:08:13;100999.53;;;20.20;71.06
76808;BME280;65758;45.458;11.062;2023-06-04T03:10:39;101001.98;;;20.18;71.20
76808;BME280;65758;45.458;11.062;2023-06-04T03:13:06;101001.59;;;20.17;71.16
76808;BME280;65758;45.458;11.062;2023-06-04T03:15:33;100998.39;;;20.14;71.23
76808;BME280;65758;45.458;11.062;2023-06-04T03:18:00;101000.77;;;20.13;71.21
76808;BME280;65758;45.458;11.062;2023-06-04T03:20:27;101000.96;;;20.09;71.35
76808;BME280;65758;45.458;11.062;2023-06-04T03:22:53;101000.20;;;20.04;71.32
76808;BME280;65758;45.458;11.062;2023-06-04T03:25:21;100997.21;;;19.99;71.60
76808;BME280;65758;45.458;11.062;2023-06-04T03:27:49;100995.71;;;19.99;71.60
76808;BME280;65758;45.458;11.062;2023-06-04T03:30:16;100995.05;;;19.95;71.55
76808;BME280;65758;45.458;11.062;2023-06-04T03:32:54;100999.48;;;19.91;71.82
76808;BME280;65758;45.458;11.062;2023-06-04T03:35:22;100995.80;;;19.87;71.75
76808;BME280;65758;45.458;11.062;2023-06-04T03:37:49;100995.66;;;19.82;71.86
76808;BME280;65758;45.458;11.062;2023-06-04T03:40:15;100998.23;;;19.78;71.97
76808;BME280;65758;45.458;11.062;2023-06-04T03:42:44;100993.10;;;19.78;72.04
76808;BME280;65758;45.458;11.062;2023-06-04T03:45:12;100997.21;;;19.79;72.15
76808;BME280;65758;45.458;11.062;2023-06-04T03:47:39;101000.66;;;19.80;72.16
76808;BME280;65758;45.458;11.062;2023-06-04T03:50:07;101003.42;;;19.83;72.33
76808;BME280;65758;45.458;11.062;2023-06-04T03:52:35;101006.98;;;19.87;72.21
76808;BME280;65758;45.458;11.062;2023-06-04T03:55:03;101007.80;;;19.91;72.29
76808;BME280;65758;45.458;11.062;2023-06-04T03:57:30;101005.23;;;19.94;72.48
76808;BME280;65758;45.458;11.062;2023-06-04T03:59:59;100996.66;;;19.98;72.31
76808;BME280;65758;45.458;11.062;2023-06-04T04:02:27;100997.05;;;20.00;72.32
76808;BME280;65758;45.458;11.062;2023-06-04T04:04:54;100991.54;;;20.02;72.29
76808;BME280;65758;45.458;11.062;2023-06-04T04:07:23;100989.31;;;20.02;72.02
76808;BME280;65758;45.458;11.062;2023-06-04T04:09:52;100988.92;;;20.01;72.20
76808;BME280;65758;45.458;11.062;2023-06-04T04:12:19;100990.89;;;19.96;72.18
76808;BME280;65758;45.458;11.062;2023-06-04T04:14:46;100987.39;;;19.94;72.41
76808;BME280;65758;45.458;11.062;2023-06-04T04:17:14;100985.52;;;19.96;72.60
76808;BME280;65758;45.458;11.062;2023-06-04T04:19:42;100990.88;;;19.96;72.61
76808;BME280;65758;45.458;11.062;2023-06-04T04:22:12;100991.89;;;19.93;72.83
76808;BME280;65758;45.458;11.062;2023-06-04T04:24:39;100988.29;;;19.96;73.03
76808;BME280;65758;45.458;11.062;2023-06-04T04:27:06;100988.44;;;19.98;73.04
76808;BME280;65758;45.458;11.062;2023-06-04T04:29:39;100987.50;;;19.98;72.91
76808;BME280;65758;45.458;11.062;2023-06-04T04:32:06;100989.00;;;19.96;73.11
76808;BME280;65758;45.458;11.062;2023-06-04T04:34:50;100986.71;;;19.99;73.16
76808;BME280;65758;45.458;11.062;2023-06-04T04:37:30;100990.20;;;20.03;72.99
76808;BME280;65758;45.458;11.062;2023-06-04T04:39:57;100987.91;;;20.07;72.82
76808;BME280;65758;45.458;11.062;2023-06-04T04:42:24;100985.96;;;20.08;73.05
76808;BME280;65758;45.458;11.062;2023-06-04T04:44:51;100984.56;;;20.09;73.17
76808;BME280;65758;45.458;11.062;2023-06-04T04:47:21;100981.10;;;20.13;72.76
76808;BME280;65758;45.458;11.062;2023-06-04T04:49:48;100985.36;;;20.18;72.69
76808;BME280;65758;45.458;11.062;2023-06-04T04:52:16;100984.66;;;20.23;72.68
76808;BME280;65758;45.458;11.062;2023-06-04T04:54:44;100986.82;;;20.28;72.64
76808;BME280;65758;45.458;11.062;2023-06-04T04:57:11;100990.52;;;20.31;72.90
76808;BME280;65758;45.458;11.062;2023-06-04T04:59:42;100991.38;;;20.34;72.90
76808;BME280;65758;45.458;11.062;2023-06-04T05:02:09;100991.09;;;20.38;72.59
76808;BME280;65758;45.458;11.062;2023-06-04T05:04:36;100992.52;;;20.40;72.52
76808;BME280;65758;45.458;11.062;2023-06-04T05:07:03;100991.35;;;20.40;72.58
76808;BME280;65758;45.458;11.062;2023-06-04T05:09:30;100988.89;;;20.42;72.78
76808;BME280;65758;45.458;11.062;2023-06-04T05:11:58;100989.43;;;20.45;72.80
76808;BME280;65758;45.458;11.062;2023-06-04T05:14:25;100985.02;;;20.49;72.59
76808;BME280;65758;45.458;11.062;2023-06-04T05:16:52;100986.89;;;20.52;72.69
76808;BME280;65758;45.458;11.062;2023-06-04T05:19:19;100989.45;;;20.54;72.68
76808;BME280;65758;45.458;11.062;2023-06-04T05:21:46;100991.88;;;20.57;72.39
76808;BME280;65758;45.458;11.062;2023-06-04T05:24:15;100994.59;;;20.58;72.23
76808;BME280;65758;45.458;11.062;2023-06-04T05:26:43;100996.84;;;20.62;72.03
76808;BME280;65758;45.458;11.062;2023-06-04T05:29:15;100994.91;;;20.68;72.01
76808;BME280;65758;45.458;11.062;2023-06-04T05:31:42;100997.82;;;20.75;71.83
76808;BME280;65758;45.458;11.062;2023-06-04T05:34:11;100999.95;;;20.82;71.55
76808;BME280;65758;45.458;11.062;2023-06-04T05:36:43;100998.29;;;20.89;71.72
76808;BME280;65758;45.458;11.062;2023-06-04T05:39:10;101000.34;;;20.97;71.67
76808;BME280;65758;45.458;11.062;2023-06-04T05:41:46;101004.80;;;21.05;71.61
76808;BME280;65758;45.458;11.062;2023-06-04T05:44:14;101010.15;;;21.12;71.58
76808;BME280;65758;45.458;11.062;2023-06-04T05:46:41;101014.89;;;21.20;71.47
76808;BME280;65758;45.458;11.062;2023-06-04T05:49:09;101019.31;;;21.30;71.49
76808;BME280;65758;45.458;11.062;2023-06-04T05:51:36;101022.72;;;21.40;71.61
76808;BME280;65758;45.458;11.062;2023-06-04T05:54:03;101026.08;;;21.53;70.97
76808;BME280;65758;45.458;11.062;2023-06-04T05:56:31;101027.98;;;21.62;70.83
76808;BME280;65758;45.458;11.062;2023-06-04T05:58:58;101031.51;;;21.68;70.71
76808;BME280;65758;45.458;11.062;2023-06-04T06:01:25;101028.48;;;21.73;70.69
76808;BME280;65758;45.458;11.062;2023-06-04T06:03:53;101029.73;;;21.77;70.63
76808;BME280;65758;45.458;11.062;2023-06-04T06:06:21;101029.73;;;21.78;70.25
76808;BME280;65758;45.458;11.062;2023-06-04T06:13:13;101037.09;;;21.82;70.54
76808;BME280;65758;45.458;11.062;2023-06-04T06:15:40;101039.98;;;21.81;70.70
76808;BME280;65758;45.458;11.062;2023-06-04T06:18:07;101041.70;;;21.79;70.52
76808;BME280;65758;45.458;11.062;2023-06-04T06:20:34;101044.38;;;21.79;70.44
76808;BME280;65758;45.458;11.062;2023-06-04T06:31:38;101055.59;;;21.76;70.64
76808;BME280;65758;45.458;11.062;2023-06-04T06:34:04;101059.06;;;21.74;70.48
76808;BME280;65758;45.458;11.062;2023-06-04T06:36:32;101059.31;;;21.72;70.56
76808;BME280;65758;45.458;11.062;2023-06-04T06:38:59;101057.85;;;21.69;70.54
76808;BME280;65758;45.458;11.062;2023-06-04T06:41:26;101054.13;;;21.68;70.67
76808;BME280;65758;45.458;11.062;2023-06-04T06:43:53;101053.23;;;21.68;70.67
76808;BME280;65758;45.458;11.062;2023-06-04T06:46:20;101050.77;;;21.67;70.56
76808;BME280;65758;45.458;11.062;2023-06-04T06:48:48;101052.96;;;21.66;70.59
76808;BME280;65758;45.458;11.062;2023-06-04T06:51:15;101055.19;;;21.67;70.69
76808;BME280;65758;45.458;11.062;2023-06-04T06:53:42;101054.63;;;21.67;70.50
76808;BME280;65758;45.458;11.062;2023-06-04T06:56:09;101054.39;;;21.69;70.46
76808;BME280;65758;45.458;11.062;2023-06-04T06:58:36;101057.23;;;21.69;70.33
76808;BME280;65758;45.458;11.062;2023-06-04T07:01:03;101060.88;;;21.71;70.42
76808;BME280;65758;45.458;11.062;2023-06-04T07:03:30;101063.08;;;21.75;70.21
76808;BME280;65758;45.458;11.062;2023-06-04T07:05:58;101065.36;;;21.80;70.25
76808;BME280;65758;45.458;11.062;2023-06-04T07:08:24;101059.96;;;21.85;70.19
76808;BME280;65758;45.458;11.062;2023-06-04T07:10:51;101062.67;;;21.87;70.24
76808;BME280;65758;45.458;11.062;2023-06-04T07:13:18;101066.84;;;21.90;70.38
76808;BME280;65758;45.458;11.062;2023-06-04T07:15:45;101070.71;;;21.95;70.36
76808;BME280;65758;45.458;11.062;2023-06-04T07:18:12;101073.49;;;22.00;70.34
76808;BME280;65758;45.458;11.062;2023-06-04T07:20:38;101073.64;;;22.04;70.40
76808;BME280;65758;45.458;11.062;2023-06-04T07:23:05;101073.98;;;22.08;70.47
76808;BME280;65758;45.458;11.062;2023-06-04T07:25:33;101076.69;;;22.09;70.29
76808;BME280;65758;45.458;11.062;2023-06-04T07:28:00;101080.70;;;22.10;70.36
76808;BME280;65758;45.458;11.062;2023-06-04T07:30:31;101079.39;;;22.12;70.48
76808;BME280;65758;45.458;11.062;2023-06-04T07:33:00;101081.75;;;22.16;70.51
76808;BME280;65758;45.458;11.062;2023-06-04T07:35:27;101079.94;;;22.18;70.50
76808;BME280;65758;45.458;11.062;2023-06-04T07:37:54;101078.02;;;22.21;70.45
76808;BME280;65758;45.458;11.062;2023-06-04T07:44:48;101085.91;;;22.32;70.08
76808;BME280;65758;45.458;11.062;2023-06-04T07:51:36;101092.23;;;22.29;69.87
76808;BME280;65758;45.458;11.062;2023-06-04T07:54:03;101088.48;;;22.27;69.99
76808;BME280;65758;45.458;11.062;2023-06-04T07:56:30;101088.46;;;22.28;69.80
76808;BME280;65758;45.458;11.062;2023-06-04T07:58:57;101085.86;;;22.31;69.80
76808;BME280;65758;45.458;11.062;2023-06-04T08:01:25;101084.86;;;22.37;69.91
76808;BME280;65758;45.458;11.062;2023-06-04T08:03:53;101087.88;;;22.40;69.88
76808;BME280;65758;45.458;11.062;2023-06-04T08:06:20;101091.32;;;22.43;69.55
76808;BME280;65758;45.458;11.062;2023-06-04T08:08:47;101092.33;;;22.47;69.31
76808;BME280;65758;45.458;11.062;2023-06-04T08:11:15;101091.77;;;22.56;69.08
76808;BME280;65758;45.458;11.062;2023-06-04T08:13:42;101090.90;;;22.63;68.68
76808;BME280;65758;45.458;11.062;2023-06-04T08:16:10;101087.53;;;22.70;68.19
76808;BME280;65758;45.458;11.062;2023-06-04T08:18:41;101091.66;;;22.71;67.92
76808;BME280;65758;45.458;11.062;2023-06-04T08:21:11;101095.02;;;22.75;67.89
76808;BME280;65758;45.458;11.062;2023-06-04T08:23:38;101099.66;;;22.83;67.54
76808;BME280;65758;45.458;11.062;2023-06-04T08:26:06;101102.36;;;22.93;67.35
76808;BME280;65758;45.458;11.062;2023-06-04T08:28:35;101107.80;;;23.03;67.37
76808;BME280;65758;45.458;11.062;2023-06-04T08:31:02;101108.16;;;23.12;67.06
76808;BME280;65758;45.458;11.062;2023-06-04T08:33:29;101105.65;;;23.24;66.96
76808;BME280;65758;45.458;11.062;2023-06-04T08:35:55;101102.60;;;23.36;66.49
76808;BME280;65758;45.458;11.062;2023-06-04T08:38:22;101101.27;;;23.49;66.03
76808;BME280;65758;45.458;11.062;2023-06-04T08:40:52;101102.86;;;23.60;65.25
76808;BME280;65758;45.458;11.062;2023-06-04T08:43:19;101104.17;;;23.68;64.55
76808;BME280;65758;45.458;11.062;2023-06-04T08:45:49;101104.69;;;23.74;63.57
76808;BME280;65758;45.458;11.062;2023-06-04T08:48:18;101102.21;;;23.79;63.64
76808;BME280;65758;45.458;11.062;2023-06-04T08:50:46;101106.48;;;23.84;63.82
76808;BME280;65758;45.458;11.062;2023-06-04T08:53:15;101110.14;;;23.89;63.70
76808;BME280;65758;45.458;11.062;2023-06-04T08:55:42;101114.86;;;23.92;63.41
76808;BME280;65758;45.458;11.062;2023-06-04T08:58:11;101115.85;;;23.92;63.28
76808;BME280;65758;45.458;11.062;2023-06-04T09:00:39;101118.89;;;23.91;62.92
76808;BME280;65758;45.458;11.062;2023-06-04T09:03:06;101119.11;;;23.88;62.98
76808;BME280;65758;45.458;11.062;2023-06-04T09:05:34;101119.89;;;23.88;63.03
76808;BME280;65758;45.458;11.062;2023-06-04T09:08:03;101121.93;;;23.89;62.95
76808;BME280;65758;45.458;11.062;2023-06-04T09:10:31;101124.71;;;23.91;63.06
76808;BME280;65758;45.458;11.062;2023-06-04T09:13:01;101125.08;;;23.94;62.99
76808;BME280;65758;45.458;11.062;2023-06-04T09:15:29;101126.34;;;23.99;63.27
76808;BME280;65758;45.458;11.062;2023-06-04T09:17:56;101121.73;;;24.03;63.20
76808;BME280;65758;45.458;11.062;2023-06-04T09:20:24;101124.33;;;24.08;63.03
76808;BME280;65758;45.458;11.062;2023-06-04T09:22:51;101126.31;;;24.12;62.59
76808;BME280;65758;45.458;11.062;2023-06-04T09:25:23;101132.24;;;24.14;62.23
76808;BME280;65758;45.458;11.062;2023-06-04T09:27:54;101132.93;;;24.17;62.05
76808;BME280;65758;45.458;11.062;2023-06-04T09:30:24;101134.66;;;24.20;62.10
76808;BME280;65758;45.458;11.062;2023-06-04T09:32:51;101138.58;;;24.22;61.93
76808;BME280;65758;45.458;11.062;2023-06-04T09:35:20;101135.30;;;24.25;61.81
76808;BME280;65758;45.458;11.062;2023-06-04T09:37:54;101140.55;;;24.25;61.47
76808;BME280;65758;45.458;11.062;2023-06-04T09:40:23;101140.80;;;24.26;61.47
76808;BME280;65758;45.458;11.062;2023-06-04T09:42:51;101138.10;;;24.33;61.46
76808;BME280;65758;45.458;11.062;2023-06-04T09:45:34;101130.47;;;24.43;61.08
76808;BME280;65758;45.458;11.062;2023-06-04T09:48:03;101132.52;;;24.55;60.59
76808;BME280;65758;45.458;11.062;2023-06-04T09:50:35;101130.95;;;24.63;59.84
76808;BME280;65758;45.458;11.062;2023-06-04T09:53:18;101129.73;;;24.73;59.14
76808;BME280;65758;45.458;11.062;2023-06-04T09:55:59;101130.73;;;24.85;58.75
76808;BME280;65758;45.458;11.062;2023-06-04T09:58:28;101130.27;;;24.97;58.75
76808;BME280;65758;45.458;11.062;2023-06-04T10:00:56;101127.17;;;25.13;58.49
76808;BME280;65758;45.458;11.062;2023-06-04T10:03:31;101117.50;;;25.33;57.55
76808;BME280;65758;45.458;11.062;2023-06-04T10:06:03;101116.02;;;25.58;57.04
76808;BME280;65758;45.458;11.062;2023-06-04T10:08:32;101109.73;;;25.86;56.52
76808;BME280;65758;45.458;11.062;2023-06-04T10:11:01;101105.23;;;26.13;55.77
76808;BME280;65758;45.458;11.062;2023-06-04T10:13:31;101100.73;;;26.37;55.06
76808;BME280;65758;45.458;11.062;2023-06-04T10:15:58;101098.58;;;26.54;54.18
76808;BME280;65758;45.458;11.062;2023-06-04T10:18:30;101099.73;;;26.71;52.52
76808;BME280;65758;45.458;11.062;2023-06-04T10:20:57;101097.45;;;26.86;51.93
76808;BME280;65758;45.458;11.062;2023-06-04T10:27:45;101099.17;;;27.05;51.13
76808;BME280;65758;45.458;11.062;2023-06-04T10:30:13;101092.66;;;27.01;50.44
76808;BME280;65758;45.458;11.062;2023-06-04T10:32:40;101088.88;;;27.00;50.10
76808;BME280;65758;45.458;11.062;2023-06-04T10:35:07;101093.98;;;27.00;50.16
76808;BME280;65758;45.458;11.062;2023-06-04T10:37:34;101093.44;;;27.00;49.81
76808;BME280;65758;45.458;11.062;2023-06-04T10:40:01;101092.98;;;27.02;49.68
76808;BME280;65758;45.458;11.062;2023-06-04T10:42:42;101095.36;;;27.10;49.30
76808;BME280;65758;45.458;11.062;2023-06-04T10:45:10;101094.12;;;27.19;49.13
76808;BME280;65758;45.458;11.062;2023-06-04T10:47:37;101093.40;;;27.29;49.12
76808;BME280;65758;45.458;11.062;2023-06-04T10:50:13;101089.21;;;27.44;49.18
76808;BME280;65758;45.458;11.062;2023-06-04T10:52:54;101091.96;;;27.62;48.39
76808;BME280;65758;45.458;11.062;2023-06-04T10:55:21;101090.12;;;27.78;47.65
76808;BME280;65758;45.458;11.062;2023-06-04T10:58:06;101077.30;;;27.95;47.45
76808;BME280;65758;45.458;11.062;2023-06-04T11:00:36;101076.55;;;28.17;47.11
76808;BME280;65758;45.458;11.062;2023-06-04T11:03:04;101075.17;;;28.27;46.68
76808;BME280;65758;45.458;11.062;2023-06-04T11:05:47;101069.05;;;28.35;46.04
76808;BME280;65758;45.458;11.062;2023-06-04T11:08:15;101068.55;;;28.41;45.62
76808;BME280;65758;45.458;11.062;2023-06-04T11:10:52;101062.64;;;28.48;45.80
76808;BME280;65758;45.458;11.062;2023-06-04T11:13:24;101065.36;;;28.51;45.61
76808;BME280;65758;45.458;11.062;2023-06-04T11:15:52;101065.18;;;28.59;45.31
76808;BME280;65758;45.458;11.062;2023-06-04T11:18:21;101065.60;;;28.63;44.88
76808;BME280;65758;45.458;11.062;2023-06-04T11:20:50;101064.94;;;28.61;44.25
76808;BME280;65758;45.458;11.062;2023-06-04T11:23:17;101066.77;;;28.63;44.43
76808;BME280;65758;45.458;11.062;2023-06-04T11:25:44;101067.95;;;28.71;44.49
76808;BME280;65758;45.458;11.062;2023-06-04T11:28:16;101064.85;;;28.85;44.15
76808;BME280;65758;45.458;11.062;2023-06-04T11:31:01;101063.48;;;29.04;43.94
76808;BME280;65758;45.458;11.062;2023-06-04T11:33:44;101064.16;;;29.11;43.90
76808;BME280;65758;45.458;11.062;2023-06-04T11:36:28;101064.91;;;29.18;43.05
76808;BME280;65758;45.458;11.062;2023-06-04T11:39:03;101063.98;;;29.21;42.85
76808;BME280;65758;45.458;11.062;2023-06-04T11:41:35;101065.20;;;29.23;43.22
76808;BME280;65758;45.458;11.062;2023-06-04T11:44:05;101059.37;;;29.26;42.90
76808;BME280;65758;45.458;11.062;2023-06-04T11:50:42;101041.04;;;29.46;43.83
76808;BME280;65758;45.458;11.062;2023-06-04T11:53:10;101037.27;;;29.44;44.10
76808;BME280;65758;45.458;11.062;2023-06-04T11:55:38;101038.52;;;29.46;44.29
76808;BME280;65758;45.458;11.062;2023-06-04T11:58:05;101032.13;;;29.54;44.21
76808;BME280;65758;45.458;11.062;2023-06-04T12:00:32;101027.86;;;29.60;43.72
76808;BME280;65758;45.458;11.062;2023-06-04T12:02:59;101028.59;;;29.63;43.72
76808;BME280;65758;45.458;11.062;2023-06-04T12:05:30;101031.28;;;29.65;43.10
76808;BME280;65758;45.458;11.062;2023-06-04T12:08:10;101029.80;;;29.67;42.99
76808;BME280;65758;45.458;11.062;2023-06-04T12:10:42;101031.28;;;29.66;42.89
76808;BME280;65758;45.458;11.062;2023-06-04T12:13:09;101034.90;;;29.68;43.04
76808;BME280;65758;45.458;11.062;2023-06-04T12:15:37;101031.40;;;29.67;42.98
76808;BME280;65758;45.458;11.062;2023-06-04T12:18:03;101030.39;;;29.65;43.12
76808;BME280;65758;45.458;11.062;2023-06-04T12:20:35;101030.70;;;29.70;43.29
76808;BME280;65758;45.458;11.062;2023-06-04T12:23:04;101036.06;;;29.71;43.07
76808;BME280;65758;45.458;11.062;2023-06-04T12:25:33;101038.56;;;29.68;42.79
76808;BME280;65758;45.458;11.062;2023-06-04T12:28:00;101042.03;;;29.56;42.88
76808;BME280;65758;45.458;11.062;2023-06-04T12:30:36;101041.04;;;29.33;42.84
76808;BME280;65758;45.458;11.062;2023-06-04T12:33:04;101035.70;;;29.20;42.97
76808;BME280;65758;45.458;11.062;2023-06-04T12:35:31;101036.94;;;29.19;42.90
76808;BME280;65758;45.458;11.062;2023-06-04T12:37:58;101035.79;;;29.25;43.03
76808;BME280;65758;45.458;11.062;2023-06-04T12:44:51;101026.27;;;29.52;42.67
76808;BME280;65758;45.458;11.062;2023-06-04T12:47:18;101029.11;;;29.59;41.48
76808;BME280;65758;45.458;11.062;2023-06-04T12:49:48;101018.60;;;29.63;41.51
76808;BME280;65758;45.458;11.062;2023-06-04T12:52:16;101018.83;;;29.73;41.72
76808;BME280;65758;45.458;11.062;2023-06-04T12:54:44;101013.44;;;29.82;40.73
76808;BME280;65758;45.458;11.062;2023-06-04T12:57:11;101006.65;;;29.91;41.28
76808;BME280;65758;45.458;11.062;2023-06-04T12:59:37;101006.36;;;29.89;41.02
76808;BME280;65758;45.458;11.062;2023-06-04T13:02:05;101006.06;;;29.90;41.51
76808;BME280;65758;45.458;11.062;2023-06-04T13:04:32;101003.37;;;29.96;41.23
76808;BME280;65758;45.458;11.062;2023-06-04T13:06:59;101002.20;;;29.99;41.16
76808;BME280;65758;45.458;11.062;2023-06-04T13:13:46;100994.17;;;30.03;40.44
76808;BME280;65758;45.458;11.062;2023-06-04T13:16:13;100989.36;;;30.09;40.93
76808;BME280;65758;45.458;11.062;2023-06-04T13:18:40;100992.96;;;30.10;40.81
76808;BME280;65758;45.458;11.062;2023-06-04T13:25:27;100991.61;;;30.06;40.78
76808;BME280;65758;45.458;11.062;2023-06-04T13:28:00;100990.02;;;30.09;41.02
76808;BME280;65758;45.458;11.062;2023-06-04T13:34:54;100981.98;;;30.10;41.59
76808;BME280;65758;45.458;11.062;2023-06-04T13:41:49;100977.83;;;30.06;41.55
76808;BME280;65758;45.458;11.062;2023-06-04T13:48:29;100982.25;;;29.99;41.39
76808;BME280;65758;45.458;11.062;2023-06-04T13:50:56;100979.52;;;29.95;41.38
76808;BME280;65758;45.458;11.062;2023-06-04T13:53:23;100975.00;;;29.94;41.68